sensor_id;sensor_type;location;lat;lon;timestamp;P1;durP1;ratioP1;P2;durP2;ratioP2
54241;SDS011;40156;51.080;17.082;2022-07-03T00:00:46;7.28;;;5.15;;
54241;SDS011;40156;51.080;17.082;2022-07-03T00:03:14;6.90;;;5.13;;
54241;SDS011;40156;51.080;17.082;2022-07-03T00:05:41;6.68;;;5.38;;
54241;SDS011;40156;51.080;17.082;2022-07-03T00:11:12;5.78;;;4.85;;
54241;SDS011;40156;51.080;17.082;2022-07-03T00:16:50;8.40;;;5.68;;
54241;SDS011;40156;51.080;17.082;2022-07-03T00:19:18;8.20;;;5.75;;
54241;SDS011;40156;51.080;17.082;2022-07-03T00:21:56;6.80;;;5.50;;
54241;SDS011;40156;51.080;17.082;2022-07-03T00:24:28;10.50;;;6.50;;
54241;SDS011;40156;51.080;17.082;2022-07-03T00:27:00;9.10;;;5.78;;
54241;SDS011;40156;51.080;17.082;2022-07-03T00:29:35;8.30;;;6.07;;
54241;SDS011;40156;51.080;17.082;2022-07-03T00:32:03;8.85;;;6.70;;
54241;SDS011;40156;51.080;17.082;2022-07-03T00:34:33;8.25;;;6.45;;
54241;SDS011;40156;51.080;17.082;2022-07-03T00:37:08;7.40;;;5.93;;
54241;SDS011;40156;51.080;17.082;2022-07-03T00:39:37;7.63;;;5.68;;
54241;SDS011;40156;51.080;17.082;2022-07-03T00:42:06;7.80;;;5.90;;
54241;SDS011;40156;51.080;17.082;2022-07-03T00:44:34;7.25;;;6.25;;
54241;SDS011;40156;51.080;17.082;2022-07-03T00:47:02;9.90;;;6.25;;
54241;SDS011;40156;51.080;17.082;2022-07-03T00:49:31;8.90;;;6.65;;
54241;SDS011;40156;51.080;17.082;2022-07-03T00:52:02;8.57;;;6.50;;
54241;SDS011;40156;51.080;17.082;2022-07-03T00:54:32;9.43;;;6.45;;
54241;SDS011;40156;51.080;17.082;2022-07-03T00:57:01;8.10;;;6.00;;
54241;SDS011;40156;51.080;17.082;2022-07-03T00:59:30;6.50;;;5.68;;
54241;SDS011;40156;51.080;17.082;2022-07-03T01:02:01;7.43;;;5.53;;
54241;SDS011;40156;51.080;17.082;2022-07-03T01:04:49;8.00;;;6.00;;
54241;SDS011;40156;51.080;17.082;2022-07-03T01:07:22;7.32;;;5.60;;
54241;SDS011;40156;51.080;17.082;2022-07-03T01:10:00;6.55;;;5.85;;
54241;SDS011;40156;51.080;17.082;2022-07-03T01:15:39;8.88;;;6.50;;
54241;SDS011;40156;51.080;17.082;2022-07-03T01:20:59;9.57;;;6.88;;
54241;SDS011;40156;51.080;17.082;2022-07-03T01:26:09;10.70;;;7.18;;
54241;SDS011;40156;51.080;17.082;2022-07-03T01:28:51;9.85;;;7.10;;
54241;SDS011;40156;51.080;17.082;2022-07-03T01:31:19;8.60;;;7.28;;
54241;SDS011;40156;51.080;17.082;2022-07-03T01:33:47;12.63;;;6.90;;
54241;SDS011;40156;51.080;17.082;2022-07-03T01:36:17;7.65;;;6.85;;
54241;SDS011;40156;51.080;17.082;2022-07-03T01:38:48;10.93;;;7.10;;
54241;SDS011;40156;51.080;17.082;2022-07-03T01:41:16;7.63;;;6.80;;
54241;SDS011;40156;51.080;17.082;2022-07-03T01:46:11;9.40;;;7.40;;
54241;SDS011;40156;51.080;17.082;2022-07-03T01:48:41;10.05;;;7.22;;
54241;SDS011;40156;51.080;17.082;2022-07-03T01:51:09;10.45;;;7.25;;
54241;SDS011;40156;51.080;17.082;2022-07-03T01:56:53;9.30;;;7.15;;
54241;SDS011;40156;51.080;17.082;2022-07-03T01:59:21;10.38;;;7.03;;
54241;SDS011;40156;51.080;17.082;2022-07-03T02:01:52;12.27;;;7.22;;
54241;SDS011;40156;51.080;17.082;2022-07-03T02:04:30;10.20;;;7.05;;
54241;SDS011;40156;51.080;17.082;2022-07-03T02:12:17;11.82;;;7.75;;
54241;SDS011;40156;51.080;17.082;2022-07-03T02:14:53;9.65;;;7.35;;
54241;SDS011;40156;51.080;17.082;2022-07-03T02:17:27;14.02;;;8.20;;
54241;SDS011;40156;51.080;17.082;2022-07-03T02:19:58;12.25;;;8.02;;
54241;SDS011;40156;51.080;17.082;2022-07-03T02:22:36;12.07;;;7.88;;
54241;SDS011;40156;51.080;17.082;2022-07-03T02:25:08;9.88;;;6.97;;
54241;SDS011;40156;51.080;17.082;2022-07-03T02:30:36;12.23;;;7.38;;
54241;SDS011;40156;51.080;17.082;2022-07-03T02:33:05;11.48;;;7.75;;
54241;SDS011;40156;51.080;17.082;2022-07-03T02:35:33;11.13;;;8.13;;
54241;SDS011;40156;51.080;17.082;2022-07-03T02:38:04;10.18;;;7.65;;
54241;SDS011;40156;51.080;17.082;2022-07-03T02:40:32;13.35;;;9.05;;
54241;SDS011;40156;51.080;17.082;2022-07-03T02:46:14;10.95;;;7.97;;
54241;SDS011;40156;51.080;17.082;2022-07-03T02:48:23;11.00;;;8.43;;
54241;SDS011;40156;51.080;17.082;2022-07-03T02:50:52;11.35;;;8.18;;
54241;SDS011;40156;51.080;17.082;2022-07-03T02:53:24;11.35;;;8.90;;
54241;SDS011;40156;51.080;17.082;2022-07-03T02:55:52;9.90;;;7.68;;
54241;SDS011;40156;51.080;17.082;2022-07-03T02:58:44;12.77;;;8.77;;
54241;SDS011;40156;51.080;17.082;2022-07-03T03:03:50;12.88;;;8.93;;
54241;SDS011;40156;51.080;17.082;2022-07-03T03:06:25;12.10;;;7.80;;
54241;SDS011;40156;51.080;17.082;2022-07-03T03:11:41;9.10;;;7.22;;
54241;SDS011;40156;51.080;17.082;2022-07-03T03:14:11;10.23;;;8.43;;
54241;SDS011;40156;51.080;17.082;2022-07-03T03:16:45;11.02;;;8.30;;
54241;SDS011;40156;51.080;17.082;2022-07-03T03:19:13;11.18;;;8.05;;
54241;SDS011;40156;51.080;17.082;2022-07-03T03:24:26;8.70;;;6.78;;
54241;SDS011;40156;51.080;17.082;2022-07-03T03:26:55;8.55;;;6.45;;
54241;SDS011;40156;51.080;17.082;2022-07-03T03:29:39;7.88;;;5.90;;
54241;SDS011;40156;51.080;17.082;2022-07-03T03:34:51;5.93;;;5.28;;
54241;SDS011;40156;51.080;17.082;2022-07-03T03:37:18;9.88;;;5.80;;
54241;SDS011;40156;51.080;17.082;2022-07-03T03:39:46;6.50;;;4.95;;
54241;SDS011;40156;51.080;17.082;2022-07-03T03:42:13;5.88;;;5.22;;
54241;SDS011;40156;51.080;17.082;2022-07-03T03:44:41;6.85;;;5.10;;
54241;SDS011;40156;51.080;17.082;2022-07-03T03:47:08;5.95;;;5.13;;
54241;SDS011;40156;51.080;17.082;2022-07-03T03:49:36;5.30;;;4.72;;
54241;SDS011;40156;51.080;17.082;2022-07-03T03:52:04;7.00;;;5.28;;
54241;SDS011;40156;51.080;17.082;2022-07-03T03:54:32;8.45;;;4.88;;
54241;SDS011;40156;51.080;17.082;2022-07-03T03:57:19;6.05;;;5.32;;
54241;SDS011;40156;51.080;17.082;2022-07-03T03:59:47;5.90;;;4.78;;
54241;SDS011;40156;51.080;17.082;2022-07-03T04:02:15;8.98;;;4.80;;
54241;SDS011;40156;51.080;17.082;2022-07-03T04:04:42;7.60;;;4.82;;
54241;SDS011;40156;51.080;17.082;2022-07-03T04:07:10;6.93;;;4.70;;
54241;SDS011;40156;51.080;17.082;2022-07-03T04:09:37;6.43;;;4.90;;
54241;SDS011;40156;51.080;17.082;2022-07-03T04:12:05;6.35;;;5.18;;
54241;SDS011;40156;51.080;17.082;2022-07-03T04:14:33;5.28;;;4.70;;
54241;SDS011;40156;51.080;17.082;2022-07-03T04:17:00;6.63;;;4.50;;
54241;SDS011;40156;51.080;17.082;2022-07-03T04:19:33;6.20;;;4.63;;
54241;SDS011;40156;51.080;17.082;2022-07-03T04:22:01;8.48;;;5.55;;
54241;SDS011;40156;51.080;17.082;2022-07-03T04:24:28;5.32;;;4.22;;
54241;SDS011;40156;51.080;17.082;2022-07-03T04:26:56;4.95;;;4.38;;
54241;SDS011;40156;51.080;17.082;2022-07-03T04:29:23;4.50;;;4.07;;
54241;SDS011;40156;51.080;17.082;2022-07-03T04:31:50;6.93;;;4.22;;
54241;SDS011;40156;51.080;17.082;2022-07-03T04:34:18;6.68;;;4.15;;
54241;SDS011;40156;51.080;17.082;2022-07-03T04:36:45;5.53;;;4.57;;
54241;SDS011;40156;51.080;17.082;2022-07-03T04:39:13;4.68;;;4.28;;
54241;SDS011;40156;51.080;17.082;2022-07-03T04:41:40;6.28;;;4.88;;
54241;SDS011;40156;51.080;17.082;2022-07-03T04:44:23;4.95;;;4.45;;
54241;SDS011;40156;51.080;17.082;2022-07-03T04:46:50;5.30;;;4.20;;
54241;SDS011;40156;51.080;17.082;2022-07-03T04:49:20;5.50;;;4.63;;
54241;SDS011;40156;51.080;17.082;2022-07-03T04:51:47;5.80;;;4.63;;
54241;SDS011;40156;51.080;17.082;2022-07-03T04:54:14;6.63;;;4.72;;
54241;SDS011;40156;51.080;17.082;2022-07-03T04:56:42;5.93;;;4.82;;
54241;SDS011;40156;51.080;17.082;2022-07-03T04:59:09;6.38;;;4.97;;
54241;SDS011;40156;51.080;17.082;2022-07-03T05:01:37;5.68;;;4.70;;
54241;SDS011;40156;51.080;17.082;2022-07-03T05:04:04;5.82;;;4.47;;
54241;SDS011;40156;51.080;17.082;2022-07-03T05:06:31;7.20;;;5.00;;
54241;SDS011;40156;51.080;17.082;2022-07-03T05:09:05;5.82;;;4.82;;
54241;SDS011;40156;51.080;17.082;2022-07-03T05:11:32;5.30;;;4.50;;
54241;SDS011;40156;51.080;17.082;2022-07-03T05:14:01;5.30;;;4.80;;
54241;SDS011;40156;51.080;17.082;2022-07-03T05:16:29;5.90;;;4.90;;
54241;SDS011;40156;51.080;17.082;2022-07-03T05:18:57;4.88;;;4.38;;
54241;SDS011;40156;51.080;17.082;2022-07-03T05:21:24;6.70;;;4.40;;
54241;SDS011;40156;51.080;17.082;2022-07-03T05:23:52;5.78;;;4.80;;
54241;SDS011;40156;51.080;17.082;2022-07-03T05:26:20;5.68;;;5.13;;
54241;SDS011;40156;51.080;17.082;2022-07-03T05:28:47;5.30;;;4.80;;
54241;SDS011;40156;51.080;17.082;2022-07-03T05:31:15;6.55;;;5.28;;
54241;SDS011;40156;51.080;17.082;2022-07-03T05:33:53;6.75;;;4.97;;
54241;SDS011;40156;51.080;17.082;2022-07-03T05:36:20;5.97;;;4.40;;
54241;SDS011;40156;51.080;17.082;2022-07-03T05:38:49;5.38;;;4.80;;
54241;SDS011;40156;51.080;17.082;2022-07-03T05:41:16;6.65;;;4.47;;
54241;SDS011;40156;51.080;17.082;2022-07-03T05:43:44;5.10;;;4.60;;
54241;SDS011;40156;51.080;17.082;2022-07-03T05:46:11;5.88;;;4.63;;
54241;SDS011;40156;51.080;17.082;2022-07-03T05:48:39;4.72;;;4.28;;
54241;SDS011;40156;51.080;17.082;2022-07-03T05:51:06;5.25;;;4.60;;
54241;SDS011;40156;51.080;17.082;2022-07-03T05:53:34;6.22;;;4.95;;
54241;SDS011;40156;51.080;17.082;2022-07-03T05:56:01;4.75;;;4.25;;
54241;SDS011;40156;51.080;17.082;2022-07-03T05:58:34;5.35;;;4.45;;
54241;SDS011;40156;51.080;17.082;2022-07-03T06:01:01;4.90;;;4.40;;
54241;SDS011;40156;51.080;17.082;2022-07-03T06:03:30;6.35;;;5.10;;
54241;SDS011;40156;51.080;17.082;2022-07-03T06:05:59;5.10;;;4.55;;
54241;SDS011;40156;51.080;17.082;2022-07-03T06:08:26;4.80;;;4.15;;
54241;SDS011;40156;51.080;17.082;2022-07-03T06:10:54;5.28;;;4.60;;
54241;SDS011;40156;51.080;17.082;2022-07-03T06:13:21;6.38;;;4.28;;
54241;SDS011;40156;51.080;17.082;2022-07-03T06:15:48;4.80;;;4.30;;
54241;SDS011;40156;51.080;17.082;2022-07-03T06:18:16;5.47;;;4.00;;
54241;SDS011;40156;51.080;17.082;2022-07-03T06:20:43;5.15;;;4.65;;
54241;SDS011;40156;51.080;17.082;2022-07-03T06:23:13;4.53;;;4.13;;
54241;SDS011;40156;51.080;17.082;2022-07-03T06:26:03;4.47;;;4.07;;
54241;SDS011;40156;51.080;17.082;2022-07-03T06:28:45;4.50;;;4.10;;
54241;SDS011;40156;51.080;17.082;2022-07-03T06:31:12;4.30;;;3.53;;
54241;SDS011;40156;51.080;17.082;2022-07-03T06:33:40;4.38;;;3.97;;
54241;SDS011;40156;51.080;17.082;2022-07-03T06:36:07;6.40;;;4.60;;
54241;SDS011;40156;51.080;17.082;2022-07-03T06:38:36;4.72;;;4.03;;
54241;SDS011;40156;51.080;17.082;2022-07-03T06:41:03;4.38;;;3.97;;
54241;SDS011;40156;51.080;17.082;2022-07-03T06:43:31;7.35;;;6.65;;
54241;SDS011;40156;51.080;17.082;2022-07-03T06:45:58;6.85;;;5.70;;
54241;SDS011;40156;51.080;17.082;2022-07-03T06:48:41;4.90;;;4.45;;
54241;SDS011;40156;51.080;17.082;2022-07-03T06:51:08;4.28;;;3.88;;
54241;SDS011;40156;51.080;17.082;2022-07-03T06:53:59;5.53;;;3.80;;
54241;SDS011;40156;51.080;17.082;2022-07-03T06:56:26;3.90;;;3.50;;
54241;SDS011;40156;51.080;17.082;2022-07-03T06:58:57;3.92;;;3.60;;
54241;SDS011;40156;51.080;17.082;2022-07-03T07:01:24;4.20;;;3.80;;
54241;SDS011;40156;51.080;17.082;2022-07-03T07:03:52;4.40;;;3.65;;
54241;SDS011;40156;51.080;17.082;2022-07-03T07:06:20;3.78;;;3.47;;
54241;SDS011;40156;51.080;17.082;2022-07-03T07:08:47;3.22;;;2.92;;
54241;SDS011;40156;51.080;17.082;2022-07-03T07:11:14;3.20;;;3.00;;
54241;SDS011;40156;51.080;17.082;2022-07-03T07:16:23;4.20;;;3.80;;
54241;SDS011;40156;51.080;17.082;2022-07-03T07:18:51;3.92;;;3.53;;
54241;SDS011;40156;51.080;17.082;2022-07-03T07:21:19;4.10;;;3.40;;
54241;SDS011;40156;51.080;17.082;2022-07-03T07:23:46;3.45;;;3.25;;
54241;SDS011;40156;51.080;17.082;2022-07-03T07:26:13;4.80;;;3.50;;
54241;SDS011;40156;51.080;17.082;2022-07-03T07:28:41;4.22;;;3.10;;
54241;SDS011;40156;51.080;17.082;2022-07-03T07:31:08;3.53;;;3.20;;
54241;SDS011;40156;51.080;17.082;2022-07-03T07:33:35;3.22;;;2.92;;
54241;SDS011;40156;51.080;17.082;2022-07-03T07:36:03;3.00;;;2.80;;
54241;SDS011;40156;51.080;17.082;2022-07-03T07:41:47;3.17;;;2.90;;
54241;SDS011;40156;51.080;17.082;2022-07-03T07:44:18;3.30;;;3.10;;
54241;SDS011;40156;51.080;17.082;2022-07-03T07:46:46;4.32;;;2.88;;
54241;SDS011;40156;51.080;17.082;2022-07-03T07:49:14;3.20;;;2.90;;
54241;SDS011;40156;51.080;17.082;2022-07-03T07:51:41;4.03;;;3.63;;
54241;SDS011;40156;51.080;17.082;2022-07-03T07:54:08;2.95;;;2.65;;
54241;SDS011;40156;51.080;17.082;2022-07-03T07:56:36;3.13;;;2.78;;
54241;SDS011;40156;51.080;17.082;2022-07-03T07:59:03;3.03;;;2.70;;
54241;SDS011;40156;51.080;17.082;2022-07-03T08:01:30;2.58;;;2.38;;
54241;SDS011;40156;51.080;17.082;2022-07-03T08:03:58;3.45;;;3.15;;
54241;SDS011;40156;51.080;17.082;2022-07-03T08:06:25;5.63;;;3.40;;
54241;SDS011;40156;51.080;17.082;2022-07-03T08:09:04;4.95;;;3.50;;
54241;SDS011;40156;51.080;17.082;2022-07-03T08:11:31;4.03;;;3.00;;
54241;SDS011;40156;51.080;17.082;2022-07-03T08:13:59;3.58;;;3.28;;
54241;SDS011;40156;51.080;17.082;2022-07-03T08:16:26;3.83;;;2.90;;
54241;SDS011;40156;51.080;17.082;2022-07-03T08:18:54;2.83;;;2.58;;
54241;SDS011;40156;51.080;17.082;2022-07-03T08:21:21;2.70;;;2.15;;
54241;SDS011;40156;51.080;17.082;2022-07-03T08:23:48;3.45;;;2.30;;
54241;SDS011;40156;51.080;17.082;2022-07-03T08:26:16;2.63;;;2.28;;
54241;SDS011;40156;51.080;17.082;2022-07-03T08:28:51;2.95;;;2.40;;
54241;SDS011;40156;51.080;17.082;2022-07-03T08:31:19;2.83;;;2.60;;
54241;SDS011;40156;51.080;17.082;2022-07-03T08:33:47;4.07;;;2.50;;
54241;SDS011;40156;51.080;17.082;2022-07-03T08:36:14;2.65;;;2.45;;
54241;SDS011;40156;51.080;17.082;2022-07-03T08:38:42;3.50;;;2.85;;
54241;SDS011;40156;51.080;17.082;2022-07-03T08:41:09;3.58;;;3.10;;
54241;SDS011;40156;51.080;17.082;2022-07-03T08:43:37;2.67;;;2.47;;
54241;SDS011;40156;51.080;17.082;2022-07-03T08:46:06;5.68;;;2.80;;
54241;SDS011;40156;51.080;17.082;2022-07-03T08:48:35;2.65;;;2.45;;
54241;SDS011;40156;51.080;17.082;2022-07-03T08:51:03;2.40;;;2.20;;
54241;SDS011;40156;51.080;17.082;2022-07-03T08:53:31;3.38;;;2.25;;
54241;SDS011;40156;51.080;17.082;2022-07-03T08:55:59;2.50;;;2.28;;
54241;SDS011;40156;51.080;17.082;2022-07-03T08:58:27;2.90;;;2.60;;
54241;SDS011;40156;51.080;17.082;2022-07-03T09:00:57;2.60;;;2.40;;
54241;SDS011;40156;51.080;17.082;2022-07-03T09:03:24;2.60;;;2.40;;
54241;SDS011;40156;51.080;17.082;2022-07-03T09:05:52;2.78;;;2.50;;
54241;SDS011;40156;51.080;17.082;2022-07-03T09:08:19;2.30;;;2.10;;
54241;SDS011;40156;51.080;17.082;2022-07-03T09:10:47;2.88;;;2.22;;
54241;SDS011;40156;51.080;17.082;2022-07-03T09:13:15;2.28;;;2.08;;
54241;SDS011;40156;51.080;17.082;2022-07-03T09:15:42;2.47;;;2.28;;
54241;SDS011;40156;51.080;17.082;2022-07-03T09:18:10;3.28;;;2.97;;
54241;SDS011;40156;51.080;17.082;2022-07-03T09:20:38;2.30;;;2.10;;
54241;SDS011;40156;51.080;17.082;2022-07-03T09:26:01;2.28;;;2.05;;
54241;SDS011;40156;51.080;17.082;2022-07-03T09:28:45;2.33;;;2.13;;
54241;SDS011;40156;51.080;17.082;2022-07-03T09:31:13;3.03;;;2.33;;
54241;SDS011;40156;51.080;17.082;2022-07-03T09:34:00;2.20;;;2.00;;
54241;SDS011;40156;51.080;17.082;2022-07-03T09:36:40;2.30;;;2.10;;
54241;SDS011;40156;51.080;17.082;2022-07-03T09:39:24;2.00;;;1.90;;
54241;SDS011;40156;51.080;17.082;2022-07-03T09:47:25;2.30;;;2.10;;
54241;SDS011;40156;51.080;17.082;2022-07-03T09:49:53;1.80;;;1.70;;
54241;SDS011;40156;51.080;17.082;2022-07-03T09:52:27;2.20;;;2.00;;
54241;SDS011;40156;51.080;17.082;2022-07-03T09:54:56;2.10;;;2.00;;
54241;SDS011;40156;51.080;17.082;2022-07-03T09:57:28;2.10;;;1.90;;
54241;SDS011;40156;51.080;17.082;2022-07-03T10:00:15;2.15;;;1.95;;
54241;SDS011;40156;51.080;17.082;2022-07-03T10:02:56;1.90;;;1.80;;
54241;SDS011;40156;51.080;17.082;2022-07-03T10:05:30;1.92;;;1.73;;
54241;SDS011;40156;51.080;17.082;2022-07-03T10:10:37;1.77;;;1.67;;
54241;SDS011;40156;51.080;17.082;2022-07-03T10:15:50;3.50;;;1.88;;
54241;SDS011;40156;51.080;17.082;2022-07-03T10:18:19;3.13;;;1.75;;
54241;SDS011;40156;51.080;17.082;2022-07-03T10:23:17;2.00;;;1.90;;
54241;SDS011;40156;51.080;17.082;2022-07-03T10:25:47;1.77;;;1.67;;
54241;SDS011;40156;51.080;17.082;2022-07-03T10:28:15;2.28;;;2.00;;
54241;SDS011;40156;51.080;17.082;2022-07-03T10:30:43;2.25;;;2.10;;
54241;SDS011;40156;51.080;17.082;2022-07-03T10:33:17;1.80;;;1.70;;
54241;SDS011;40156;51.080;17.082;2022-07-03T10:35:48;3.90;;;2.40;;
54241;SDS011;40156;51.080;17.082;2022-07-03T10:41:21;3.33;;;2.97;;
54241;SDS011;40156;51.080;17.082;2022-07-03T10:43:51;2.40;;;1.90;;
54241;SDS011;40156;51.080;17.082;2022-07-03T10:46:21;2.58;;;1.83;;
54241;SDS011;40156;51.080;17.082;2022-07-03T10:51:23;2.47;;;1.75;;
54241;SDS011;40156;51.080;17.082;2022-07-03T10:53:51;2.83;;;1.98;;
54241;SDS011;40156;51.080;17.082;2022-07-03T10:57:24;5.20;;;1.75;;
54241;SDS011;40156;51.080;17.082;2022-07-03T11:02:27;1.90;;;1.80;;
54241;SDS011;40156;51.080;17.082;2022-07-03T11:20:37;2.05;;;1.88;;
54241;SDS011;40156;51.080;17.082;2022-07-03T11:26:00;2.30;;;2.10;;
54241;SDS011;40156;51.080;17.082;2022-07-03T11:31:16;2.05;;;1.75;;
54241;SDS011;40156;51.080;17.082;2022-07-03T11:38:38;2.10;;;1.98;;
54241;SDS011;40156;51.080;17.082;2022-07-03T11:41:07;2.05;;;1.85;;
54241;SDS011;40156;51.080;17.082;2022-07-03T11:43:34;1.90;;;1.70;;
54241;SDS011;40156;51.080;17.082;2022-07-03T11:46:02;2.25;;;1.83;;
54241;SDS011;40156;51.080;17.082;2022-07-03T11:48:31;2.03;;;1.70;;
54241;SDS011;40156;51.080;17.082;2022-07-03T11:50:59;4.07;;;1.92;;
54241;SDS011;40156;51.080;17.082;2022-07-03T11:53:32;2.35;;;2.00;;
54241;SDS011;40156;51.080;17.082;2022-07-03T11:56:02;2.55;;;1.83;;
54241;SDS011;40156;51.080;17.082;2022-07-03T12:01:09;1.80;;;1.70;;
54241;SDS011;40156;51.080;17.082;2022-07-03T12:03:37;3.13;;;1.75;;
54241;SDS011;40156;51.080;17.082;2022-07-03T12:06:04;2.75;;;2.00;;
54241;SDS011;40156;51.080;17.082;2022-07-03T12:08:32;2.95;;;1.95;;
54241;SDS011;40156;51.080;17.082;2022-07-03T12:11:00;2.03;;;1.83;;
54241;SDS011;40156;51.080;17.082;2022-07-03T12:13:42;2.70;;;1.88;;
54241;SDS011;40156;51.080;17.082;2022-07-03T12:16:13;2.15;;;2.00;;
54241;SDS011;40156;51.080;17.082;2022-07-03T12:18:59;4.77;;;2.20;;
54241;SDS011;40156;51.080;17.082;2022-07-03T12:21:34;2.33;;;2.13;;
54241;SDS011;40156;51.080;17.082;2022-07-03T12:24:08;3.35;;;2.08;;
54241;SDS011;40156;51.080;17.082;2022-07-03T12:26:36;2.30;;;2.10;;
54241;SDS011;40156;51.080;17.082;2022-07-03T12:29:04;2.53;;;2.33;;
54241;SDS011;40156;51.080;17.082;2022-07-03T12:31:32;2.72;;;2.20;;
54241;SDS011;40156;51.080;17.082;2022-07-03T12:34:02;4.75;;;2.40;;
54241;SDS011;40156;51.080;17.082;2022-07-03T12:36:30;3.65;;;2.13;;
54241;SDS011;40156;51.080;17.082;2022-07-03T12:41:34;3.75;;;2.05;;
54241;SDS011;40156;51.080;17.082;2022-07-03T12:44:10;5.82;;;2.20;;
54241;SDS011;40156;51.080;17.082;2022-07-03T12:46:38;2.75;;;1.92;;
54241;SDS011;40156;51.080;17.082;2022-07-03T12:49:09;3.08;;;2.75;;
54241;SDS011;40156;51.080;17.082;2022-07-03T12:51:46;2.80;;;2.60;;
54241;SDS011;40156;51.080;17.082;2022-07-03T12:54:16;2.90;;;2.60;;
54241;SDS011;40156;51.080;17.082;2022-07-03T12:57:07;2.50;;;2.30;;
54241;SDS011;40156;51.080;17.082;2022-07-03T12:59:39;2.63;;;2.42;;
54241;SDS011;40156;51.080;17.082;2022-07-03T13:02:07;3.75;;;2.53;;
54241;SDS011;40156;51.080;17.082;2022-07-03T13:04:40;3.80;;;3.03;;
54241;SDS011;40156;51.080;17.082;2022-07-03T13:07:14;4.07;;;2.30;;
54241;SDS011;40156;51.080;17.082;2022-07-03T13:09:41;3.25;;;2.67;;
54241;SDS011;40156;51.080;17.082;2022-07-03T13:12:09;2.83;;;2.47;;
54241;SDS011;40156;51.080;17.082;2022-07-03T13:15:00;2.42;;;2.22;;
54241;SDS011;40156;51.080;17.082;2022-07-03T13:20:13;3.67;;;2.70;;
54241;SDS011;40156;51.080;17.082;2022-07-03T13:22:41;2.78;;;2.47;;
54241;SDS011;40156;51.080;17.082;2022-07-03T13:25:08;2.60;;;2.40;;
54241;SDS011;40156;51.080;17.082;2022-07-03T13:27:35;3.97;;;2.88;;
54241;SDS011;40156;51.080;17.082;2022-07-03T13:30:03;2.92;;;2.53;;
54241;SDS011;40156;51.080;17.082;2022-07-03T13:35:35;2.13;;;1.92;;
54241;SDS011;40156;51.080;17.082;2022-07-03T13:38:03;2.75;;;2.47;;
54241;SDS011;40156;51.080;17.082;2022-07-03T13:40:30;4.72;;;3.10;;
54241;SDS011;40156;51.080;17.082;2022-07-03T13:42:58;3.28;;;2.67;;
54241;SDS011;40156;51.080;17.082;2022-07-03T13:45:25;3.20;;;2.67;;
54241;SDS011;40156;51.080;17.082;2022-07-03T13:47:53;3.00;;;2.63;;
54241;SDS011;40156;51.080;17.082;2022-07-03T13:50:20;2.60;;;2.40;;
54241;SDS011;40156;51.080;17.082;2022-07-03T13:52:49;3.38;;;2.42;;
54241;SDS011;40156;51.080;17.082;2022-07-03T13:55:17;4.03;;;2.50;;
54241;SDS011;40156;51.080;17.082;2022-07-03T14:00:49;3.00;;;2.47;;
54241;SDS011;40156;51.080;17.082;2022-07-03T14:03:16;3.95;;;3.55;;
54241;SDS011;40156;51.080;17.082;2022-07-03T14:05:44;4.53;;;2.45;;
54241;SDS011;40156;51.080;17.082;2022-07-03T14:08:11;3.78;;;3.10;;
54241;SDS011;40156;51.080;17.082;2022-07-03T14:10:39;3.25;;;2.60;;
54241;SDS011;40156;51.080;17.082;2022-07-03T14:13:06;4.22;;;2.22;;
54241;SDS011;40156;51.080;17.082;2022-07-03T14:15:33;2.78;;;2.42;;
54241;SDS011;40156;51.080;17.082;2022-07-03T14:18:14;2.80;;;2.50;;
54241;SDS011;40156;51.080;17.082;2022-07-03T14:20:41;4.25;;;3.83;;
54241;SDS011;40156;51.080;17.082;2022-07-03T14:23:15;3.80;;;2.80;;
54241;SDS011;40156;51.080;17.082;2022-07-03T14:25:42;3.80;;;2.58;;
54241;SDS011;40156;51.080;17.082;2022-07-03T14:28:10;3.55;;;2.42;;
54241;SDS011;40156;51.080;17.082;2022-07-03T14:30:37;7.03;;;2.67;;
54241;SDS011;40156;51.080;17.082;2022-07-03T14:33:04;5.82;;;3.22;;
54241;SDS011;40156;51.080;17.082;2022-07-03T14:35:32;2.88;;;2.58;;
54241;SDS011;40156;51.080;17.082;2022-07-03T14:37:59;2.83;;;2.50;;
54241;SDS011;40156;51.080;17.082;2022-07-03T14:40:27;2.70;;;2.40;;
54241;SDS011;40156;51.080;17.082;2022-07-03T14:42:54;2.90;;;2.70;;
54241;SDS011;40156;51.080;17.082;2022-07-03T14:45:21;2.75;;;2.55;;
54241;SDS011;40156;51.080;17.082;2022-07-03T14:47:49;2.70;;;2.50;;
54241;SDS011;40156;51.080;17.082;2022-07-03T14:50:17;2.47;;;2.28;;
54241;SDS011;40156;51.080;17.082;2022-07-03T14:52:44;2.30;;;2.10;;
54241;SDS011;40156;51.080;17.082;2022-07-03T14:55:21;2.60;;;2.17;;
54241;SDS011;40156;51.080;17.082;2022-07-03T14:57:56;2.20;;;2.00;;
54241;SDS011;40156;51.080;17.082;2022-07-03T15:00:26;2.97;;;2.53;;
54241;SDS011;40156;51.080;17.082;2022-07-03T15:03:06;2.22;;;2.03;;
54241;SDS011;40156;51.080;17.082;2022-07-03T15:05:35;2.70;;;2.50;;
54241;SDS011;40156;51.080;17.082;2022-07-03T15:11:39;5.30;;;2.30;;
54241;SDS011;40156;51.080;17.082;2022-07-03T15:14:08;2.92;;;2.60;;
54241;SDS011;40156;51.080;17.082;2022-07-03T15:16:35;2.20;;;2.00;;
54241;SDS011;40156;51.080;17.082;2022-07-03T15:19:03;2.88;;;2.53;;
54241;SDS011;40156;51.080;17.082;2022-07-03T15:21:32;2.35;;;2.15;;
54241;SDS011;40156;51.080;17.082;2022-07-03T15:24:01;2.45;;;1.90;;
54241;SDS011;40156;51.080;17.082;2022-07-03T15:26:29;2.40;;;2.20;;
54241;SDS011;40156;51.080;17.082;2022-07-03T15:29:00;2.55;;;2.15;;
54241;SDS011;40156;51.080;17.082;2022-07-03T15:31:28;2.55;;;2.03;;
54241;SDS011;40156;51.080;17.082;2022-07-03T15:34:07;2.20;;;2.00;;
54241;SDS011;40156;51.080;17.082;2022-07-03T15:37:46;2.80;;;2.35;;
54241;SDS011;40156;51.080;17.082;2022-07-03T15:39:52;2.40;;;2.20;;
54241;SDS011;40156;51.080;17.082;2022-07-03T15:44:54;2.88;;;2.13;;
54241;SDS011;40156;51.080;17.082;2022-07-03T15:50:20;2.10;;;1.90;;
54241;SDS011;40156;51.080;17.082;2022-07-03T15:52:49;2.03;;;1.92;;
54241;SDS011;40156;51.080;17.082;2022-07-03T15:55:16;8.20;;;7.03;;
54241;SDS011;40156;51.080;17.082;2022-07-03T15:58:03;3.38;;;2.50;;
54241;SDS011;40156;51.080;17.082;2022-07-03T16:00:33;3.65;;;2.75;;
54241;SDS011;40156;51.080;17.082;2022-07-03T16:03:23;3.45;;;2.20;;
54241;SDS011;40156;51.080;17.082;2022-07-03T16:05:56;2.25;;;2.08;;
54241;SDS011;40156;51.080;17.082;2022-07-03T16:08:24;2.10;;;1.90;;
54241;SDS011;40156;51.080;17.082;2022-07-03T16:10:51;2.88;;;2.38;;
54241;SDS011;40156;51.080;17.082;2022-07-03T16:13:19;2.85;;;2.17;;
54241;SDS011;40156;51.080;17.082;2022-07-03T16:15:51;2.22;;;2.00;;
54241;SDS011;40156;51.080;17.082;2022-07-03T16:18:18;2.30;;;2.10;;
54241;SDS011;40156;51.080;17.082;2022-07-03T16:20:47;4.20;;;2.33;;
54241;SDS011;40156;51.080;17.082;2022-07-03T16:23:30;2.83;;;2.20;;
54241;SDS011;40156;51.080;17.082;2022-07-03T16:25:58;2.85;;;2.20;;
54241;SDS011;40156;51.080;17.082;2022-07-03T16:31:37;2.47;;;2.28;;
54241;SDS011;40156;51.080;17.082;2022-07-03T16:36:37;2.38;;;2.17;;
54241;SDS011;40156;51.080;17.082;2022-07-03T16:39:06;3.22;;;2.30;;
54241;SDS011;40156;51.080;17.082;2022-07-03T16:41:39;2.22;;;2.03;;
54241;SDS011;40156;51.080;17.082;2022-07-03T16:44:13;2.50;;;2.28;;
54241;SDS011;40156;51.080;17.082;2022-07-03T16:46:41;2.92;;;2.10;;
54241;SDS011;40156;51.080;17.082;2022-07-03T16:49:08;3.22;;;2.15;;
54241;SDS011;40156;51.080;17.082;2022-07-03T16:51:36;3.45;;;2.20;;
54241;SDS011;40156;51.080;17.082;2022-07-03T16:57:04;2.30;;;2.10;;
54241;SDS011;40156;51.080;17.082;2022-07-03T16:59:38;3.67;;;2.83;;
54241;SDS011;40156;51.080;17.082;2022-07-03T17:02:09;2.70;;;2.50;;